sensor_id;sensor_type;location;lat;lon;timestamp;temperature;humidity
16273;DHT22;8244;50.044;9.006;2024-02-26T00:01:13;7.40;99.90
16273;DHT22;8244;50.044;9.006;2024-02-26T00:06:16;7.40;99.90
16273;DHT22;8244;50.044;9.006;2024-02-26T00:11:18;7.40;99.90
16273;DHT22;8244;50.044;9.006;2024-02-26T00:16:20;7.30;99.90
16273;DHT22;8244;50.044;9.006;2024-02-26T00:21:23;7.30;99.90
16273;DHT22;8244;50.044;9.006;2024-02-26T00:26:25;7.30;99.90
16273;DHT22;8244;50.044;9.006;2024-02-26T00:31:26;7.20;99.90
16273;DHT22;8244;50.044;9.006;2024-02-26T00:36:30;7.20;99.90
16273;DHT22;8244;50.044;9.006;2024-02-26T00:41:32;7.10;99.90
16273;DHT22;8244;50.044;9.006;2024-02-26T00:46:33;7.10;99.90
16273;DHT22;8244;50.044;9.006;2024-02-26T00:51:36;7.10;99.90
16273;DHT22;8244;50.044;9.006;2024-02-26T00:56:38;7.10;99.90
16273;DHT22;8244;50.044;9.006;2024-02-26T01:01:40;7.00;99.90
16273;DHT22;8244;50.044;9.006;2024-02-26T01:06:43;7.10;99.90
16273;DHT22;8244;50.044;9.006;2024-02-26T01:11:44;7.20;99.90
16273;DHT22;8244;50.044;9.006;2024-02-26T01:16:47;7.20;99.90
16273;DHT22;8244;50.044;9.006;2024-02-26T01:21:50;7.20;99.90
16273;DHT22;8244;50.044;9.006;2024-02-26T01:26:51;7.20;99.90
16273;DHT22;8244;50.044;9.006;2024-02-26T01:31:53;7.30;99.90
16273;DHT22;8244;50.044;9.006;2024-02-26T01:36:56;7.20;99.90
16273;DHT22;8244;50.044;9.006;2024-02-26T01:41:58;7.20;99.90
16273;DHT22;8244;50.044;9.006;2024-02-26T01:47:00;7.20;99.90
16273;DHT22;8244;50.044;9.006;2024-02-26T01:52:06;7.20;99.90
16273;DHT22;8244;50.044;9.006;2024-02-26T01:57:08;7.20;99.90
16273;DHT22;8244;50.044;9.006;2024-02-26T02:02:11;7.20;99.90
16273;DHT22;8244;50.044;9.006;2024-02-26T02:07:15;7.20;99.90
16273;DHT22;8244;50.044;9.006;2024-02-26T02:12:18;7.30;99.90
16273;DHT22;8244;50.044;9.006;2024-02-26T02:17:20;7.30;99.90
16273;DHT22;8244;50.044;9.006;2024-02-26T02:22:23;7.30;99.90
16273;DHT22;8244;50.044;9.006;2024-02-26T02:27:25;7.30;99.90
16273;DHT22;8244;50.044;9.006;2024-02-26T02:32:27;7.20;99.90
16273;DHT22;8244;50.044;9.006;2024-02-26T02:37:31;7.20;99.90
16273;DHT22;8244;50.044;9.006;2024-02-26T02:42:33;7.20;99.90
16273;DHT22;8244;50.044;9.006;2024-02-26T02:47:36;7.10;99.90
16273;DHT22;8244;50.044;9.006;2024-02-26T02:52:39;7.10;99.90
16273;DHT22;8244;50.044;9.006;2024-02-26T02:57:41;7.10;99.90
16273;DHT22;8244;50.044;9.006;2024-02-26T03:02:43;7.10;99.90
16273;DHT22;8244;50.044;9.006;2024-02-26T03:07:47;7.10;99.90
16273;DHT22;8244;50.044;9.006;2024-02-26T03:12:49;7.10;99.90
16273;DHT22;8244;50.044;9.006;2024-02-26T03:17:51;7.10;99.90
16273;DHT22;8244;50.044;9.006;2024-02-26T03:22:54;7.00;99.90
16273;DHT22;8244;50.044;9.006;2024-02-26T03:27:56;7.00;99.90
16273;DHT22;8244;50.044;9.006;2024-02-26T03:32:57;7.00;99.90
16273;DHT22;8244;50.044;9.006;2024-02-26T03:38:01;7.00;99.90
16273;DHT22;8244;50.044;9.006;2024-02-26T03:43:03;6.90;99.90
16273;DHT22;8244;50.044;9.006;2024-02-26T03:48:07;6.90;99.90
16273;DHT22;8244;50.044;9.006;2024-02-26T03:53:10;6.90;99.90
16273;DHT22;8244;50.044;9.006;2024-02-26T03:58:13;6.90;99.90
16273;DHT22;8244;50.044;9.006;2024-02-26T04:03:15;6.80;99.90
16273;DHT22;8244;50.044;9.006;2024-02-26T04:08:18;6.80;99.90
16273;DHT22;8244;50.044;9.006;2024-02-26T04:13:20;6.70;99.90
16273;DHT22;8244;50.044;9.006;2024-02-26T04:18:21;6.70;99.90
16273;DHT22;8244;50.044;9.006;2024-02-26T04:23:24;6.70;99.90
16273;DHT22;8244;50.044;9.006;2024-02-26T04:28:26;6.70;99.90
16273;DHT22;8244;50.044;9.006;2024-02-26T04:33:29;6.70;99.90
16273;DHT22;8244;50.044;9.006;2024-02-26T04:38:32;6.70;99.90
16273;DHT22;8244;50.044;9.006;2024-02-26T04:43:34;6.60;99.90
16273;DHT22;8244;50.044;9.006;2024-02-26T04:48:41;6.60;99.90
16273;DHT22;8244;50.044;9.006;2024-02-26T04:53:44;6.60;99.90
16273;DHT22;8244;50.044;9.006;2024-02-26T04:58:46;6.60;99.90
16273;DHT22;8244;50.044;9.006;2024-02-26T05:03:47;6.60;99.90
16273;DHT22;8244;50.044;9.006;2024-02-26T05:08:50;6.60;99.90
16273;DHT22;8244;50.044;9.006;2024-02-26T05:13:52;6.60;99.90
16273;DHT22;8244;50.044;9.006;2024-02-26T05:18:54;6.60;99.90
16273;DHT22;8244;50.044;9.006;2024-02-26T05:23:57;6.60;99.90
16273;DHT22;8244;50.044;9.006;2024-02-26T05:28:59;6.70;99.90
16273;DHT22;8244;50.044;9.006;2024-02-26T05:34:00;6.70;99.90
16273;DHT22;8244;50.044;9.006;2024-02-26T05:39:04;6.70;99.90
16273;DHT22;8244;50.044;9.006;2024-02-26T05:44:05;6.70;99.90
16273;DHT22;8244;50.044;9.006;2024-02-26T05:49:10;6.60;99.90
16273;DHT22;8244;50.044;9.006;2024-02-26T05:54:13;6.60;99.90
16273;DHT22;8244;50.044;9.006;2024-02-26T05:59:15;6.60;99.90
16273;DHT22;8244;50.044;9.006;2024-02-26T06:04:16;6.70;99.90
16273;DHT22;8244;50.044;9.006;2024-02-26T06:09:19;6.70;99.90
16273;DHT22;8244;50.044;9.006;2024-02-26T06:14:21;6.70;99.90
16273;DHT22;8244;50.044;9.006;2024-02-26T06:19:24;6.70;99.90
16273;DHT22;8244;50.044;9.006;2024-02-26T06:24:27;6.60;99.90
16273;DHT22;8244;50.044;9.006;2024-02-26T06:29:28;6.60;99.90
16273;DHT22;8244;50.044;9.006;2024-02-26T06:34:30;6.60;99.90
16273;DHT22;8244;50.044;9.006;2024-02-26T06:39:33;6.50;99.90
16273;DHT22;8244;50.044;9.006;2024-02-26T06:44:35;6.50;99.90
16273;DHT22;8244;50.044;9.006;2024-02-26T06:49:36;6.50;99.90
16273;DHT22;8244;50.044;9.006;2024-02-26T06:54:39;6.50;99.90
16273;DHT22;8244;50.044;9.006;2024-02-26T06:59:42;6.50;99.90
16273;DHT22;8244;50.044;9.006;2024-02-26T07:04:46;6.50;99.90
16273;DHT22;8244;50.044;9.006;2024-02-26T07:09:49;6.50;99.90
16273;DHT22;8244;50.044;9.006;2024-02-26T07:14:51;6.50;99.90
16273;DHT22;8244;50.044;9.006;2024-02-26T07:19:53;6.50;99.90
16273;DHT22;8244;50.044;9.006;2024-02-26T07:24:56;6.60;99.90
16273;DHT22;8244;50.044;9.006;2024-02-26T07:29:59;6.50;99.90
16273;DHT22;8244;50.044;9.006;2024-02-26T07:35:00;6.50;99.90
16273;DHT22;8244;50.044;9.006;2024-02-26T07:40:05;6.60;99.90
16273;DHT22;8244;50.044;9.006;2024-02-26T07:45:09;6.50;99.90
16273;DHT22;8244;50.044;9.006;2024-02-26T07:50:11;6.50;99.90
16273;DHT22;8244;50.044;9.006;2024-02-26T07:55:14;6.50;99.90
16273;DHT22;8244;50.044;9.006;2024-02-26T08:00:17;6.50;99.90
16273;DHT22;8244;50.044;9.006;2024-02-26T08:05:19;6.50;99.90
16273;DHT22;8244;50.044;9.006;2024-02-26T08:10:22;6.60;99.90
16273;DHT22;8244;50.044;9.006;2024-02-26T08:15:23;6.60;99.90
16273;DHT22;8244;50.044;9.006;2024-02-26T08:20:25;6.70;99.90
16273;DHT22;8244;50.044;9.006;2024-02-26T08:25:28;6.80;99.90
16273;DHT22;8244;50.044;9.006;2024-02-26T08:30:30;6.70;99.90
16273;DHT22;8244;50.044;9.006;2024-02-26T08:35:31;6.70;99.90
16273;DHT22;8244;50.044;9.006;2024-02-26T08:40:35;6.70;99.90
16273;DHT22;8244;50.044;9.006;2024-02-26T08:45:36;6.80;99.90
16273;DHT22;8244;50.044;9.006;2024-02-26T08:50:38;7.00;99.90
16273;DHT22;8244;50.044;9.006;2024-02-26T08:55:41;7.20;99.90
16273;DHT22;8244;50.044;9.006;2024-02-26T09:00:43;7.40;99.90
16273;DHT22;8244;50.044;9.006;2024-02-26T09:05:44;7.50;99.90
16273;DHT22;8244;50.044;9.006;2024-02-26T09:10:49;7.70;99.90
16273;DHT22;8244;50.044;9.006;2024-02-26T09:15:51;7.80;99.90
16273;DHT22;8244;50.044;9.006;2024-02-26T09:20:52;7.90;99.90
16273;DHT22;8244;50.044;9.006;2024-02-26T09:25:55;8.10;99.90
16273;DHT22;8244;50.044;9.006;2024-02-26T09:30:57;8.10;99.90
16273;DHT22;8244;50.044;9.006;2024-02-26T09:35:59;8.20;99.90
16273;DHT22;8244;50.044;9.006;2024-02-26T09:41:03;8.20;99.90
16273;DHT22;8244;50.044;9.006;2024-02-26T09:46:05;8.30;99.90
16273;DHT22;8244;50.044;9.006;2024-02-26T09:51:07;8.40;99.90
16273;DHT22;8244;50.044;9.006;2024-02-26T09:56:12;8.50;99.90
16273;DHT22;8244;50.044;9.006;2024-02-26T10:01:17;8.70;99.90
16273;DHT22;8244;50.044;9.006;2024-02-26T10:06:19;8.80;99.90
16273;DHT22;8244;50.044;9.006;2024-02-26T10:11:22;8.80;99.90
16273;DHT22;8244;50.044;9.006;2024-02-26T10:16:25;8.90;99.90
16273;DHT22;8244;50.044;9.006;2024-02-26T10:21:27;9.00;99.90
16273;DHT22;8244;50.044;9.006;2024-02-26T10:26:30;9.10;99.90
16273;DHT22;8244;50.044;9.006;2024-02-26T10:31:32;9.30;99.90
16273;DHT22;8244;50.044;9.006;2024-02-26T10:36:34;9.60;99.90
16273;DHT22;8244;50.044;9.006;2024-02-26T10:41:37;9.80;99.90
16273;DHT22;8244;50.044;9.006;2024-02-26T10:46:40;10.10;99.90
16273;DHT22;8244;50.044;9.006;2024-02-26T10:51:44;10.10;99.90
16273;DHT22;8244;50.044;9.006;2024-02-26T10:56:50;10.40;99.90
16273;DHT22;8244;50.044;9.006;2024-02-26T11:01:52;10.40;99.90
16273;DHT22;8244;50.044;9.006;2024-02-26T11:06:57;10.60;99.90
16273;DHT22;8244;50.044;9.006;2024-02-26T11:12:01;10.70;99.90
16273;DHT22;8244;50.044;9.006;2024-02-26T11:17:08;10.90;99.90
16273;DHT22;8244;50.044;9.006;2024-02-26T11:22:11;11.10;99.90
16273;DHT22;8244;50.044;9.006;2024-02-26T11:27:16;11.40;99.90
16273;DHT22;8244;50.044;9.006;2024-02-26T11:32:20;11.60;99.90
16273;DHT22;8244;50.044;9.006;2024-02-26T11:37:22;11.40;99.90
16273;DHT22;8244;50.044;9.006;2024-02-26T11:42:25;11.30;99.90
16273;DHT22;8244;50.044;9.006;2024-02-26T11:47:27;11.10;99.90
16273;DHT22;8244;50.044;9.006;2024-02-26T11:52:28;11.20;99.90
16273;DHT22;8244;50.044;9.006;2024-02-26T11:57:38;11.40;99.90
16273;DHT22;8244;50.044;9.006;2024-02-26T12:02:41;11.50;99.90
16273;DHT22;8244;50.044;9.006;2024-02-26T12:07:46;11.80;99.90
16273;DHT22;8244;50.044;9.006;2024-02-26T12:12:49;12.00;99.90
16273;DHT22;8244;50.044;9.006;2024-02-26T12:17:54;12.10;99.90
16273;DHT22;8244;50.044;9.006;2024-02-26T12:22:56;12.30;99.90
16273;DHT22;8244;50.044;9.006;2024-02-26T12:28:00;12.50;99.90
16273;DHT22;8244;50.044;9.006;2024-02-26T12:33:02;12.80;99.90
16273;DHT22;8244;50.044;9.006;2024-02-26T12:38:04;12.90;99.90
16273;DHT22;8244;50.044;9.006;2024-02-26T12:43:07;12.90;99.90
16273;DHT22;8244;50.044;9.006;2024-02-26T12:48:13;12.90;99.90
16273;DHT22;8244;50.044;9.006;2024-02-26T12:53:15;13.10;99.90
16273;DHT22;8244;50.044;9.006;2024-02-26T12:58:19;13.30;99.90
16273;DHT22;8244;50.044;9.006;2024-02-26T13:03:25;13.30;99.90
16273;DHT22;8244;50.044;9.006;2024-02-26T13:08:27;13.40;99.90
16273;DHT22;8244;50.044;9.006;2024-02-26T13:13:33;13.40;99.90
16273;DHT22;8244;50.044;9.006;2024-02-26T13:18:36;13.70;99.90
16273;DHT22;8244;50.044;9.006;2024-02-26T13:23:38;14.00;99.90
16273;DHT22;8244;50.044;9.006;2024-02-26T13:28:41;14.10;99.90
16273;DHT22;8244;50.044;9.006;2024-02-26T13:33:46;14.00;99.90
16273;DHT22;8244;50.044;9.006;2024-02-26T13:38:52;14.10;99.90
16273;DHT22;8244;50.044;9.006;2024-02-26T13:43:56;14.40;99.90
16273;DHT22;8244;50.044;9.006;2024-02-26T13:48:58;14.60;99.90
16273;DHT22;8244;50.044;9.006;2024-02-26T13:53:59;14.90;99.90
16273;DHT22;8244;50.044;9.006;2024-02-26T13:59:02;15.10;99.90
16273;DHT22;8244;50.044;9.006;2024-02-26T14:04:04;15.40;99.90
16273;DHT22;8244;50.044;9.006;2024-02-26T14:09:07;15.60;99.90
16273;DHT22;8244;50.044;9.006;2024-02-26T14:14:11;15.60;99.90
16273;DHT22;8244;50.044;9.006;2024-02-26T14:19:12;15.30;99.90
16273;DHT22;8244;50.044;9.006;2024-02-26T14:24:14;15.00;99.90
16273;DHT22;8244;50.044;9.006;2024-02-26T14:29:17;14.80;99.90
16273;DHT22;8244;50.044;9.006;2024-02-26T14:34:19;14.70;99.90
16273;DHT22;8244;50.044;9.006;2024-02-26T14:39:20;14.70;99.90
16273;DHT22;8244;50.044;9.006;2024-02-26T14:44:23;14.70;99.90
16273;DHT22;8244;50.044;9.006;2024-02-26T14:49:25;14.80;99.90
16273;DHT22;8244;50.044;9.006;2024-02-26T14:54:27;14.80;99.90
16273;DHT22;8244;50.044;9.006;2024-02-26T14:59:34;14.70;99.90
16273;DHT22;8244;50.044;9.006;2024-02-26T15:04:37;14.80;99.90
16273;DHT22;8244;50.044;9.006;2024-02-26T15:09:39;14.70;99.90
16273;DHT22;8244;50.044;9.006;2024-02-26T15:14:42;14.60;99.90
16273;DHT22;8244;50.044;9.006;2024-02-26T15:19:45;14.50;99.90
16273;DHT22;8244;50.044;9.006;2024-02-26T15:24:46;14.50;99.90
16273;DHT22;8244;50.044;9.006;2024-02-26T15:29:49;14.50;99.90
16273;DHT22;8244;50.044;9.006;2024-02-26T15:34:56;14.50;99.90
16273;DHT22;8244;50.044;9.006;2024-02-26T15:39:58;14.40;99.90
16273;DHT22;8244;50.044;9.006;2024-02-26T15:45:01;14.40;99.90
16273;DHT22;8244;50.044;9.006;2024-02-26T15:50:04;14.20;99.90
16273;DHT22;8244;50.044;9.006;2024-02-26T15:55:06;13.90;99.90
16273;DHT22;8244;50.044;9.006;2024-02-26T16:00:10;13.70;99.90
16273;DHT22;8244;50.044;9.006;2024-02-26T16:05:12;13.60;99.90
16273;DHT22;8244;50.044;9.006;2024-02-26T16:10:14;13.40;99.90
16273;DHT22;8244;50.044;9.006;2024-02-26T16:15:17;13.20;99.90
16273;DHT22;8244;50.044;9.006;2024-02-26T16:20:22;13.00;99.90
16273;DHT22;8244;50.044;9.006;2024-02-26T16:25:24;12.80;99.90
16273;DHT22;8244;50.044;9.006;2024-02-26T16:30:29;12.60;99.90
16273;DHT22;8244;50.044;9.006;2024-02-26T16:35:32;12.50;99.90
16273;DHT22;8244;50.044;9.006;2024-02-26T16:40:34;12.30;99.90
16273;DHT22;8244;50.044;9.006;2024-02-26T16:45:38;12.20;99.90
16273;DHT22;8244;50.044;9.006;2024-02-26T16:50:39;12.10;99.90
16273;DHT22;8244;50.044;9.006;2024-02-26T16:55:41;11.90;99.90
16273;DHT22;8244;50.044;9.006;2024-02-26T17:00:44;11.80;99.90
16273;DHT22;8244;50.044;9.006;2024-02-26T17:05:46;11.60;99.90
16273;DHT22;8244;50.044;9.006;2024-02-26T17:10:48;11.50;99.90
16273;DHT22;8244;50.044;9.006;2024-02-26T17:15:51;11.30;99.90
16273;DHT22;8244;50.044;9.006;2024-02-26T17:20:52;11.20;99.90
16273;DHT22;8244;50.044;9.006;2024-02-26T17:25:55;11.10;99.90
16273;DHT22;8244;50.044;9.006;2024-02-26T17:30:58;10.90;99.90
16273;DHT22;8244;50.044;9.006;2024-02-26T17:36:00;10.80;99.90
16273;DHT22;8244;50.044;9.006;2024-02-26T17:41:02;10.70;99.90
16273;DHT22;8244;50.044;9.006;2024-02-26T17:46:07;10.50;99.90
16273;DHT22;8244;50.044;9.006;2024-02-26T17:51:09;10.40;99.90
16273;DHT22;8244;50.044;9.006;2024-02-26T17:56:12;10.20;99.90
16273;DHT22;8244;50.044;9.006;2024-02-26T18:01:15;10.10;99.90
16273;DHT22;8244;50.044;9.006;2024-02-26T18:06:17;10.00;99.90
16273;DHT22;8244;50.044;9.006;2024-02-26T18:11:19;9.90;99.90
16273;DHT22;8244;50.044;9.006;2024-02-26T18:16:22;9.90;99.90
16273;DHT22;8244;50.044;9.006;2024-02-26T18:21:23;9.80;99.90
16273;DHT22;8244;50.044;9.006;2024-02-26T18:26:26;9.70;99.90
16273;DHT22;8244;50.044;9.006;2024-02-26T18:31:29;9.70;99.90
16273;DHT22;8244;50.044;9.006;2024-02-26T18:36:31;9.60;99.90
16273;DHT22;8244;50.044;9.006;2024-02-26T18:41:32;9.60;99.90
16273;DHT22;8244;50.044;9.006;2024-02-26T18:46:42;9.60;99.90
16273;DHT22;8244;50.044;9.006;2024-02-26T18:51:44;9.60;99.90
16273;DHT22;8244;50.044;9.006;2024-02-26T18:56:46;9.50;99.90
16273;DHT22;8244;50.044;9.006;2024-02-26T19:01:49;9.50;99.90
16273;DHT22;8244;50.044;9.006;2024-02-26T19:06:51;9.50;99.90
16273;DHT22;8244;50.044;9.006;2024-02-26T19:11:53;9.40;99.90
16273;DHT22;8244;50.044;9.006;2024-02-26T19:16:57;9.40;99.90
16273;DHT22;8244;50.044;9.006;2024-02-26T19:21:59;9.30;99.90
16273;DHT22;8244;50.044;9.006;2024-02-26T19:27:00;9.30;99.90
16273;DHT22;8244;50.044;9.006;2024-02-26T19:32:04;9.20;99.90
16273;DHT22;8244;50.044;9.006;2024-02-26T19:37:06;9.10;99.90
16273;DHT22;8244;50.044;9.006;2024-02-26T19:42:07;9.10;99.90
16273;DHT22;8244;50.044;9.006;2024-02-26T19:47:12;9.00;99.90
16273;DHT22;8244;50.044;9.006;2024-02-26T19:52:14;9.00;99.90
16273;DHT22;8244;50.044;9.006;2024-02-26T19:57:17;9.00;99.90
16273;DHT22;8244;50.044;9.006;2024-02-26T20:02:20;9.00;99.90
16273;DHT22;8244;50.044;9.006;2024-02-26T20:07:22;9.00;99.90
16273;DHT22;8244;50.044;9.006;2024-02-26T20:12:23;9.00;99.90
16273;DHT22;8244;50.044;9.006;2024-02-26T20:17:26;8.90;99.90
16273;DHT22;8244;50.044;9.006;2024-02-26T20:22:28;8.90;99.90
16273;DHT22;8244;50.044;9.006;2024-02-26T20:27:29;8.90;99.90
16273;DHT22;8244;50.044;9.006;2024-02-26T20:32:33;8.80;99.90
16273;DHT22;8244;50.044;9.006;2024-02-26T20:37:34;8.70;99.90
16273;DHT22;8244;50.044;9.006;2024-02-26T20:42:36;8.70;99.90
16273;DHT22;8244;50.044;9.006;2024-02-26T20:47:39;8.60;99.90
16273;DHT22;8244;50.044;9.006;2024-02-26T20:52:41;8.60;99.90
16273;DHT22;8244;50.044;9.006;2024-02-26T20:57:42;8.50;99.90
16273;DHT22;8244;50.044;9.006;2024-02-26T21:02:45;8.50;99.90
16273;DHT22;8244;50.044;9.006;2024-02-26T21:07:47;8.50;99.90
16273;DHT22;8244;50.044;9.006;2024-02-26T21:12:49;8.50;99.90
16273;DHT22;8244;50.044;9.006;2024-02-26T21:17:53;8.50;99.90
16273;DHT22;8244;50.044;9.006;2024-02-26T21:22:54;8.40;99.90
16273;DHT22;8244;50.044;9.006;2024-02-26T21:27:56;8.40;99.90
16273;DHT22;8244;50.044;9.006;2024-02-26T21:33:01;8.40;99.90
16273;DHT22;8244;50.044;9.006;2024-02-26T21:38:03;8.40;99.90
16273;DHT22;8244;50.044;9.006;2024-02-26T21:43:05;8.30;99.90
16273;DHT22;8244;50.044;9.006;2024-02-26T21:48:08;8.40;99.90
16273;DHT22;8244;50.044;9.006;2024-02-26T21:53:10;8.30;99.90
16273;DHT22;8244;50.044;9.006;2024-02-26T21:58:12;8.30;99.90
16273;DHT22;8244;50.044;9.006;2024-02-26T22:03:15;8.30;99.90
16273;DHT22;8244;50.044;9.006;2024-02-26T22:08:16;8.30;99.90
16273;DHT22;8244;50.044;9.006;2024-02-26T22:13:18;8.30;99.90
16273;DHT22;8244;50.044;9.006;2024-02-26T22:18:21;8.30;99.90
16273;DHT22;8244;50.044;9.006;2024-02-26T22:23:23;8.20;99.90
16273;DHT22;8244;50.044;9.006;2024-02-26T22:28:24;8.20;99.90
16273;DHT22;8244;50.044;9.006;2024-02-26T22:33:27;8.20;99.90
16273;DHT22;8244;50.044;9.006;2024-02-26T22:38:29;8.20;99.90
16273;DHT22;8244;50.044;9.006;2024-02-26T22:43:31;8.20;99.90
16273;DHT22;8244;50.044;9.006;2024-02-26T22:48:34;8.20;99.90
16273;DHT22;8244;50.044;9.006;2024-02-26T22:53:35;8.20;99.90
16273;DHT22;8244;50.044;9.006;2024-02-26T22:58:37;8.20;99.90
16273;DHT22;8244;50.044;9.006;2024-02-26T23:03:40;8.20;99.90
16273;DHT22;8244;50.044;9.006;2024-02-26T23:08:42;8.10;99.90
16273;DHT22;8244;50.044;9.006;2024-02-26T23:13:43;8.10;99.90
16273;DHT22;8244;50.044;9.006;2024-02-26T23:18:47;8.00;99.90
16273;DHT22;8244;50.044;9.006;2024-02-26T23:23:49;8.00;99.90
16273;DHT22;8244;50.044;9.006;2024-02-26T23:28:52;8.00;99.90
16273;DHT22;8244;50.044;9.006;2024-02-26T23:33:55;7.90;99.90
16273;DHT22;8244;50.044;9.006;2024-02-26T23:38:57;7.90;99.90
16273;DHT22;8244;50.044;9.006;2024-02-26T23:44:00;7.80;99.90
16273;DHT22;8244;50.044;9.006;2024-02-26T23:49:03;7.80;99.90
16273;DHT22;8244;50.044;9.006;2024-02-26T23:54:06;7.70;99.90
16273;DHT22;8244;50.044;9.006;2024-02-26T23:59:08;7.70;99.90
